createdAt,value
2018-11-11T00:03:13.289Z,21.37
2018-11-11T00:08:08.163Z,19.97
2018-11-11T00:13:12.602Z,19.83
2018-11-11T00:18:10.141Z,20.17
2018-11-11T00:23:05.450Z,20.77
2018-11-11T00:28:00.680Z,23.63
2018-11-11T00:33:00.938Z,22.73
2018-11-11T00:37:56.262Z,23.33
2018-11-11T00:42:51.550Z,22.23
2018-11-11T00:47:47.570Z,19.43
2018-11-11T00:52:43.169Z,20.37
2018-11-11T00:57:47.008Z,21.73
2018-11-11T01:02:44.047Z,21.70
2018-11-11T01:07:47.271Z,20.80
2018-11-11T01:12:46.624Z,19.33
2018-11-11T01:17:47.217Z,20.97
2018-11-11T01:22:42.782Z,20.30
2018-11-11T01:27:44.232Z,20.73
2018-11-11T01:32:43.396Z,20.63
2018-11-11T01:37:38.419Z,22.23
2018-11-11T01:42:33.554Z,21.97
2018-11-11T01:47:28.641Z,22.30
2018-11-11T01:52:35.572Z,19.67
2018-11-11T01:57:30.592Z,21.50
2018-11-11T02:02:32.564Z,19.23
2018-11-11T02:07:27.631Z,21.80
2018-11-11T02:12:23.115Z,21.13
2018-11-11T02:17:18.334Z,21.63
2018-11-11T02:22:13.348Z,20.57
2018-11-11T02:27:08.349Z,21.63
2018-11-11T02:32:03.262Z,21.97
2018-11-11T02:37:02.670Z,21.27
2018-11-11T02:42:04.321Z,22.63
2018-11-11T02:47:06.564Z,20.90
2018-11-11T02:52:07.923Z,20.17
2018-11-11T02:57:13.127Z,21.17
2018-11-11T03:02:08.309Z,21.60
2018-11-11T03:07:03.318Z,21.57
2018-11-11T03:11:58.272Z,24.93
2018-11-11T03:17:02.363Z,22.43
2018-11-11T03:21:57.322Z,25.47
2018-11-11T03:26:52.339Z,25.63
2018-11-11T03:31:47.376Z,23.47
2018-11-11T03:36:43.046Z,22.13
2018-11-11T03:41:42.915Z,22.27
2018-11-11T03:46:41.608Z,22.60
2018-11-11T03:51:40.928Z,24.00
2018-11-11T03:56:37.639Z,23.60
2018-11-11T04:01:37.350Z,23.17
2018-11-11T04:06:40.922Z,22.13
2018-11-11T04:11:40.494Z,21.80
2018-11-11T04:16:36.389Z,20.43
2018-11-11T04:21:32.047Z,19.37
2018-11-11T04:26:27.744Z,20.33
2018-11-11T04:31:22.710Z,19.30
2018-11-11T04:36:17.590Z,19.50
2018-11-11T04:41:12.428Z,19.10
2018-11-11T04:46:07.343Z,18.97
2018-11-11T04:51:02.151Z,19.40
2018-11-11T04:55:56.948Z,32.13
2018-11-11T05:00:51.782Z,21.00
2018-11-11T05:05:46.642Z,24.60
2018-11-11T05:10:41.470Z,23.13
2018-11-11T05:15:36.304Z,19.83
2018-11-11T05:20:32.545Z,19.40
2018-11-11T05:25:27.346Z,19.23
2018-11-11T05:30:24.884Z,18.77
2018-11-11T05:35:19.725Z,20.07
2018-11-11T05:40:14.947Z,22.67
2018-11-11T05:45:13.157Z,21.30
2018-11-11T05:50:13.280Z,19.50
2018-11-11T05:55:19.561Z,18.00
2018-11-11T06:00:23.033Z,18.37
2018-11-11T06:05:18.025Z,20.17
2018-11-11T06:10:14.280Z,20.03
2018-11-11T06:15:11.829Z,21.10
2018-11-11T06:20:09.601Z,23.33
2018-11-11T06:25:04.665Z,22.60
2018-11-11T06:30:00.866Z,20.50
2018-11-11T06:34:57.301Z,22.10
2018-11-11T06:39:57.496Z,21.03
2018-11-11T06:44:56.375Z,21.90
2018-11-11T06:49:51.734Z,22.20
2018-11-11T06:54:46.595Z,21.90
2018-11-11T06:59:41.768Z,19.20
2018-11-11T07:04:40.473Z,21.50
2018-11-11T07:09:38.232Z,21.17
2018-11-11T07:14:34.587Z,22.37
2018-11-11T07:19:36.390Z,20.57
2018-11-11T07:24:31.219Z,20.87
2018-11-11T07:29:26.053Z,22.27
2018-11-11T07:34:22.386Z,19.93
2018-11-11T07:39:17.581Z,23.37
2018-11-11T07:44:32.182Z,23.60
2018-11-11T07:49:37.200Z,24.10
2018-11-11T08:05:37.746Z,22.67
2018-11-11T08:10:51.719Z,24.73
2018-11-11T08:18:19.116Z,22.77
2018-11-11T08:23:26.304Z,20.33
2018-11-11T08:30:51.126Z,23.77
2018-11-11T08:35:55.662Z,23.50
2018-11-11T08:41:00.803Z,23.00
2018-11-11T08:46:17.734Z,24.17
2018-11-11T09:02:03.281Z,22.67
2018-11-11T09:07:00.901Z,23.47
2018-11-11T09:11:55.910Z,25.57
2018-11-11T09:21:16.199Z,25.10
2018-11-11T09:26:16.696Z,25.93
2018-11-11T09:31:11.962Z,24.03
2018-11-11T09:36:07.995Z,21.67
2018-11-11T09:41:24.920Z,23.67
2018-11-11T09:46:19.817Z,28.93
2018-11-11T09:51:14.619Z,24.60
2018-11-11T09:56:09.602Z,22.60
2018-11-11T10:01:48.706Z,19.50
2018-11-11T10:06:47.999Z,19.97
2018-11-11T10:13:50.609Z,19.70
2018-11-11T10:18:51.557Z,18.83
2018-11-11T10:29:47.805Z,22.30
2018-11-11T10:34:51.014Z,20.07
2018-11-11T10:40:00.646Z,17.30
2018-11-11T10:45:03.992Z,19.23
2018-11-11T10:50:01.540Z,16.90
2018-11-11T10:54:57.592Z,17.10
2018-11-11T10:59:53.255Z,17.37
2018-11-11T11:05:00.831Z,19.00
2018-11-11T11:09:58.157Z,16.40
2018-11-11T11:15:01.712Z,16.87
2018-11-11T11:25:23.983Z,13.77
2018-11-11T11:30:20.379Z,14.37
2018-11-11T11:41:04.022Z,14.90
2018-11-11T11:56:15.632Z,20.43
2018-11-11T12:10:17.453Z,21.37
2018-11-11T12:44:26.160Z,15.17
2018-11-11T12:55:13.989Z,13.93
2018-11-11T13:00:32.733Z,13.17
2018-11-11T13:05:36.529Z,13.13
2018-11-11T13:10:48.913Z,13.53
2018-11-11T13:15:44.967Z,13.40
2018-11-11T13:20:42.499Z,12.33
2018-11-11T13:25:39.425Z,13.23
2018-11-11T13:30:35.935Z,13.53
2018-11-11T13:35:55.824Z,12.37
2018-11-11T13:40:51.167Z,12.27
2018-11-11T13:45:48.646Z,11.73
2018-11-11T13:56:17.239Z,12.30
2018-11-11T14:01:30.636Z,12.40
2018-11-11T14:06:29.512Z,12.67
2018-11-11T14:11:26.188Z,12.93
2018-11-11T14:16:23.193Z,12.70
2018-11-11T14:21:18.447Z,12.83
2018-11-11T14:26:17.171Z,13.07
2018-11-11T14:37:08.386Z,12.03
2018-11-11T14:42:10.837Z,11.30
2018-11-11T14:47:19.111Z,11.10
2018-11-11T14:52:33.310Z,11.07
2018-11-11T14:59:50.348Z,11.67
2018-11-11T15:04:46.598Z,10.67
2018-11-11T15:09:44.463Z,11.57
2018-11-11T15:14:41.848Z,11.67
2018-11-11T15:19:42.348Z,11.67
2018-11-11T15:24:49.285Z,11.67
2018-11-11T15:29:50.036Z,11.47
2018-11-11T15:35:04.238Z,11.43
2018-11-11T15:45:28.866Z,12.83
2018-11-11T16:01:23.733Z,13.10
2018-11-11T16:06:18.726Z,11.60
2018-11-11T16:11:13.628Z,12.63
2018-11-11T16:16:09.018Z,12.77
2018-11-11T16:21:04.031Z,13.60
2018-11-11T16:25:59.206Z,13.43
2018-11-11T16:30:55.559Z,13.27
2018-11-11T16:36:16.499Z,11.97
2018-11-11T16:41:12.456Z,11.93
2018-11-11T16:46:08.205Z,10.90
2018-11-11T16:51:04.573Z,11.67
2018-11-11T16:56:00.967Z,12.93
2018-11-11T17:06:22.472Z,14.10
2018-11-11T17:11:17.872Z,16.77
2018-11-11T17:16:14.311Z,15.83
2018-11-11T17:21:16.341Z,16.33
2018-11-11T17:26:11.477Z,14.07
2018-11-11T17:31:07.034Z,12.63
2018-11-11T17:36:03.448Z,13.27
2018-11-11T17:41:03.842Z,14.53
2018-11-11T17:45:59.946Z,15.87
2018-11-11T17:50:55.232Z,13.10
2018-11-11T17:55:52.843Z,10.33
2018-11-11T18:00:48.050Z,10.63
2018-11-11T18:05:43.458Z,10.10
2018-11-11T18:10:38.819Z,9.60
2018-11-11T18:15:44.355Z,10.10
2018-11-11T18:20:46.679Z,9.77
2018-11-11T18:25:41.867Z,9.43
2018-11-11T18:30:37.083Z,9.50
2018-11-11T18:36:14.802Z,9.73
2018-11-11T18:41:12.106Z,10.30
2018-11-11T18:51:46.142Z,10.63
2018-11-11T18:56:50.565Z,10.73
2018-11-11T19:01:47.057Z,9.87
2018-11-11T19:06:43.342Z,10.50
2018-11-11T19:11:40.533Z,11.00
2018-11-11T19:16:35.712Z,10.37
2018-11-11T19:21:31.841Z,9.87
2018-11-11T19:26:29.055Z,10.53
2018-11-11T19:31:42.221Z,9.67
2018-11-11T19:36:43.618Z,10.27
2018-11-11T19:41:45.927Z,9.97
2018-11-11T19:47:08.352Z,9.70
2018-11-11T19:52:14.690Z,10.27
2018-11-11T20:12:55.000Z,8.30
2018-11-11T20:18:09.245Z,8.77
2018-11-11T20:23:18.793Z,10.30
2018-11-11T20:28:25.484Z,11.53
2018-11-11T20:33:28.437Z,12.97
2018-11-11T20:38:27.900Z,10.57
2018-11-11T20:43:31.268Z,13.87
2018-11-11T20:48:40.728Z,13.30
2018-11-11T20:53:36.765Z,12.93
2018-11-11T21:05:26.857Z,13.40
2018-11-11T21:10:44.222Z,12.43
2018-11-11T21:16:19.710Z,11.97
2018-11-11T21:21:50.175Z,11.47
2018-11-11T21:38:06.859Z,13.67
2018-11-11T21:53:02.310Z,12.70
2018-11-11T22:06:06.236Z,12.10
2018-11-11T22:11:01.957Z,12.50
2018-11-11T22:33:08.490Z,15.93
2018-11-11T22:44:20.401Z,13.97
2018-11-11T22:49:27.786Z,11.00
2018-11-11T22:54:28.083Z,10.93
2018-11-11T23:26:57.447Z,11.23
2018-11-11T23:48:39.217Z,12.23
2018-11-11T23:53:55.647Z,12.20
